Time;durP1;ratioP1;P1;durP2;ratioP2;P2;SDS_P1;SDS_P2;PMS_P1;PMS_P2;Temp;Humidity;BMP_temperature;BMP_pressure;BME280_temperature;BME280_humidity;BME280_pressure;Samples;Min_cycle;Max_cycle;Signal;HPM_P1;HPM_P2
2022/10/28 00:01:35;;;;;;;19.23;6.38;;;;;;;;;;6355037;22;20164;-89
2022/10/28 00:04:40;;;;;;;22.45;6.38;;;;;;;;;;6354321;22;20163;-90
2022/10/28 00:07:47;;;;;;;17.10;6.20;;;;;;;;;;6355632;22;20168;-91
2022/10/28 00:10:53;;;;;;;20.58;6.82;;;;;;;;;;6354145;22;20216;-89
2022/10/28 00:13:59;;;;;;;16.05;6.53;;;;;;;;;;6354522;22;20161;-90
2022/10/28 00:17:04;;;;;;;17.17;6.55;;;;;;;;;;6354571;22;20575;-90
2022/10/28 00:20:10;;;;;;;17.83;6.82;;;;;;;;;;6353222;22;20168;-90
2022/10/28 00:23:17;;;;;;;18.05;6.70;;;;;;;;;;6354458;22;20614;-90
2022/10/28 00:26:23;;;;;;;15.38;6.60;;;;;;;;;;6355747;22;20223;-90
2022/10/28 00:29:28;;;;;;;16.10;6.30;;;;;;;;;;6354006;22;20196;-88
2022/10/28 00:32:33;;;;;;;21.13;6.35;;;;;;;;;;6355244;22;20169;-90
2022/10/28 00:35:39;;;;;;;11.45;6.13;;;;;;;;;;6353697;22;20270;-91
2022/10/28 00:38:46;;;;;;;18.20;6.43;;;;;;;;;;6352933;22;20187;-90
2022/10/28 00:41:53;;;;;;;23.33;6.07;;;;;;;;;;6354127;22;20188;-91
2022/10/28 00:45:00;;;;;;;19.23;7.20;;;;;;;;;;6352646;22;20172;-89
2022/10/28 00:48:06;;;;;;;20.13;6.97;;;;;;;;;;6355621;22;20173;-91
2022/10/28 00:51:11;;;;;;;22.50;7.18;;;;;;;;;;6355867;22;20205;-91
2022/10/28 00:54:18;;;;;;;30.13;8.13;;;;;;;;;;6353556;22;20210;-90
2022/10/28 00:57:27;;;;;;;20.90;7.25;;;;;;;;;;6353011;22;20153;-90
2022/10/28 01:00:32;;;;;;;23.08;7.93;;;;;;;;;;6353446;22;20242;-91
2022/10/28 01:03:38;;;;;;;35.95;7.30;;;;;;;;;;6353717;22;20190;-91
2022/10/28 01:06:43;;;;;;;20.15;7.43;;;;;;;;;;6354130;22;20165;-90
2022/10/28 01:09:49;;;;;;;31.50;7.72;;;;;;;;;;6354565;22;20260;-88
2022/10/28 01:13:00;;;;;;;34.65;7.15;;;;;;;;;;6353574;22;20168;-90
2022/10/28 01:16:09;;;;;;;24.02;7.80;;;;;;;;;;6353600;22;20611;-90
2022/10/28 01:19:25;;;;;;;16.98;6.95;;;;;;;;;;6354017;22;20153;-89
2022/10/28 01:22:31;;;;;;;13.35;6.30;;;;;;;;;;6354810;22;20300;-91
2022/10/28 01:25:52;;;;;;;18.42;6.28;;;;;;;;;;6353042;22;20232;-90
2022/10/28 01:29:09;;;;;;;13.15;5.97;;;;;;;;;;6353597;22;20618;-90
2022/10/28 01:32:18;;;;;;;12.55;6.20;;;;;;;;;;6355228;22;20156;-91
2022/10/28 01:35:26;;;;;;;13.88;6.60;;;;;;;;;;6355219;22;20165;-89
2022/10/28 01:38:35;;;;;;;11.70;6.57;;;;;;;;;;6354529;22;20191;-90
2022/10/28 01:41:46;;;;;;;13.20;6.20;;;;;;;;;;6354809;22;20394;-89
2022/10/28 01:44:54;;;;;;;17.80;6.15;;;;;;;;;;6353379;22;20161;-89
2022/10/28 01:48:02;;;;;;;15.93;6.30;;;;;;;;;;6354380;22;20169;-89
2022/10/28 01:51:09;;;;;;;47.45;7.85;;;;;;;;;;6354064;22;20238;-89
2022/10/28 01:54:16;;;;;;;32.97;7.18;;;;;;;;;;6353111;22;20168;-89
2022/10/28 01:57:23;;;;;;;28.65;7.03;;;;;;;;;;6354116;22;20164;-88
2022/10/28 02:00:28;;;;;;;22.30;7.20;;;;;;;;;;6351596;22;20161;-89
2022/10/28 02:03:34;;;;;;;23.92;8.07;;;;;;;;;;6351915;22;20215;-90
2022/10/28 02:06:41;;;;;;;41.50;8.70;;;;;;;;;;6352652;22;20168;-90
2022/10/28 02:10:02;;;;;;;17.38;6.47;;;;;;;;;;6350951;22;20204;-90
2022/10/28 02:13:13;;;;;;;46.65;8.48;;;;;;;;;;6353126;22;20156;-89
2022/10/28 02:16:23;;;;;;;27.88;8.23;;;;;;;;;;6351755;22;20228;-91
2022/10/28 02:19:33;;;;;;;23.85;7.55;;;;;;;;;;6353084;22;20207;-89
2022/10/28 02:22:41;;;;;;;41.30;8.65;;;;;;;;;;6353429;22;20246;-90
2022/10/28 02:25:49;;;;;;;86.75;10.05;;;;;;;;;;6351762;22;20618;-90
2022/10/28 02:28:57;;;;;;;59.40;9.35;;;;;;;;;;6351039;22;20275;-90
2022/10/28 02:32:04;;;;;;;46.72;8.55;;;;;;;;;;6352134;22;20180;-91
2022/10/28 02:35:13;;;;;;;42.13;9.25;;;;;;;;;;6352064;22;20172;-92
2022/10/28 02:38:20;;;;;;;67.00;8.30;;;;;;;;;;6352955;22;20169;-91
2022/10/28 02:41:26;;;;;;;66.05;8.18;;;;;;;;;;6350757;22;20160;-90
2022/10/28 02:48:22;;;;;;;26.05;8.00;;;;;;;;;;6349151;22;20629;-92
2022/10/28 02:51:30;;;;;;;19.40;7.38;;;;;;;;;;6349409;22;20169;-90
2022/10/28 02:54:41;;;;;;;18.90;7.45;;;;;;;;;;6349200;22;20169;-89
2022/10/28 02:57:48;;;;;;;30.15;7.45;;;;;;;;;;6350337;22;20766;-91
2022/10/28 03:00:52;;;;;;;60.03;8.75;;;;;;;;;;6349567;22;20494;-91
2022/10/28 03:03:58;;;;;;;109.90;9.93;;;;;;;;;;6348398;22;20248;-90
2022/10/28 03:07:04;;;;;;;44.47;8.80;;;;;;;;;;6350836;22;20160;-90
2022/10/28 03:10:10;;;;;;;32.03;7.50;;;;;;;;;;6348546;22;20525;-91
2022/10/28 03:13:14;;;;;;;35.05;7.82;;;;;;;;;;6349319;22;20242;-90
2022/10/28 03:16:19;;;;;;;117.97;10.25;;;;;;;;;;6351465;22;20168;-91
2022/10/28 03:19:25;;;;;;;25.42;7.68;;;;;;;;;;6350600;22;20185;-91
2022/10/28 03:22:31;;;;;;;47.58;7.68;;;;;;;;;;6350861;22;20161;-92
2022/10/28 03:25:36;;;;;;;20.77;6.60;;;;;;;;;;6348975;22;20168;-91
2022/10/28 03:28:41;;;;;;;19.08;6.82;;;;;;;;;;6350240;22;20172;-91
2022/10/28 03:31:46;;;;;;;27.15;6.88;;;;;;;;;;6349330;22;20199;-90
2022/10/28 03:34:51;;;;;;;17.00;7.20;;;;;;;;;;6351266;22;20165;-91
2022/10/28 03:37:57;;;;;;;32.80;8.35;;;;;;;;;;6350758;22;20248;-90
2022/10/28 03:41:03;;;;;;;95.75;9.13;;;;;;;;;;6352724;22;20230;-92
2022/10/28 03:44:11;;;;;;;27.60;7.25;;;;;;;;;;6352811;22;20167;-90
2022/10/28 03:47:16;;;;;;;65.10;8.32;;;;;;;;;;6353974;22;20173;-92
2022/10/28 03:50:21;;;;;;;64.57;8.07;;;;;;;;;;6352511;22;20248;-92
2022/10/28 03:53:28;;;;;;;35.00;7.65;;;;;;;;;;6353494;22;20153;-91
2022/10/28 03:56:34;;;;;;;25.63;7.10;;;;;;;;;;6352710;22;20658;-91
2022/10/28 03:59:39;;;;;;;29.67;7.95;;;;;;;;;;6353469;22;20166;-90
2022/10/28 04:02:44;;;;;;;24.42;7.50;;;;;;;;;;6352390;22;20188;-90
2022/10/28 04:05:49;;;;;;;21.10;6.80;;;;;;;;;;6354662;22;20168;-90
2022/10/28 04:08:56;;;;;;;37.83;6.88;;;;;;;;;;6353590;22;20574;-90
2022/10/28 04:12:01;;;;;;;77.05;8.30;;;;;;;;;;6352943;22;20195;-92
2022/10/28 04:15:07;;;;;;;66.25;8.13;;;;;;;;;;6352039;22;20172;-90
2022/10/28 04:18:12;;;;;;;57.53;8.25;;;;;;;;;;6354173;22;20152;-89
2022/10/28 04:21:18;;;;;;;45.35;7.40;;;;;;;;;;6355721;22;20169;-90
2022/10/28 04:24:25;;;;;;;67.63;8.55;;;;;;;;;;6354857;22;20540;-92
2022/10/28 04:27:30;;;;;;;131.98;10.30;;;;;;;;;;6357508;22;20194;-89
2022/10/28 04:30:35;;;;;;;42.42;8.48;;;;;;;;;;6354725;22;20204;-90
2022/10/28 04:33:41;;;;;;;67.03;9.40;;;;;;;;;;6353712;22;20160;-92
2022/10/28 04:36:47;;;;;;;51.92;9.18;;;;;;;;;;6352847;22;20236;-91
2022/10/28 04:39:54;;;;;;;41.95;8.05;;;;;;;;;;6354567;22;20171;-90
2022/10/28 04:42:59;;;;;;;51.08;7.75;;;;;;;;;;6353429;22;20494;-91
2022/10/28 04:46:19;;;;;;;25.90;8.35;;;;;;;;;;6354128;22;20522;-91
2022/10/28 04:49:24;;;;;;;117.82;9.68;;;;;;;;;;6354616;22;20153;-91
2022/10/28 04:52:30;;;;;;;64.95;8.93;;;;;;;;;;6355929;22;20168;-91
2022/10/28 04:55:37;;;;;;;46.83;8.75;;;;;;;;;;6354659;22;20168;-91
2022/10/28 04:58:43;;;;;;;97.88;9.23;;;;;;;;;;6356253;22;20215;-91
2022/10/28 05:01:48;;;;;;;63.67;8.60;;;;;;;;;;6352437;22;20218;-91
2022/10/28 05:04:53;;;;;;;71.18;8.77;;;;;;;;;;6356219;22;20147;-90
2022/10/28 05:07:58;;;;;;;108.85;11.10;;;;;;;;;;6352402;22;20164;-88
2022/10/28 05:11:05;;;;;;;50.97;9.20;;;;;;;;;;6351579;22;20196;-90
2022/10/28 05:14:10;;;;;;;117.75;10.63;;;;;;;;;;6352349;22;20241;-91
2022/10/28 05:17:16;;;;;;;44.13;9.05;;;;;;;;;;6353809;22;20164;-90
2022/10/28 05:20:21;;;;;;;45.42;9.55;;;;;;;;;;6352775;22;20303;-91
2022/10/28 05:23:26;;;;;;;75.57;9.73;;;;;;;;;;6350333;22;20203;-90
2022/10/28 05:26:34;;;;;;;87.60;10.32;;;;;;;;;;6352249;22;20179;-91
2022/10/28 05:29:41;;;;;;;71.45;10.43;;;;;;;;;;6355207;22;20210;-91
2022/10/28 05:32:46;;;;;;;78.13;9.90;;;;;;;;;;6354429;22;20171;-92
2022/10/28 05:35:51;;;;;;;42.33;9.00;;;;;;;;;;6352559;22;20164;-91
2022/10/28 05:38:57;;;;;;;83.10;10.68;;;;;;;;;;6356573;22;20164;-92
2022/10/28 05:42:02;;;;;;;85.93;9.38;;;;;;;;;;6357132;22;20187;-89
2022/10/28 05:45:12;;;;;;;87.07;9.93;;;;;;;;;;6353154;22;20392;-89
2022/10/28 05:48:17;;;;;;;55.97;8.50;;;;;;;;;;6356400;22;20168;-92
2022/10/28 05:51:23;;;;;;;128.30;11.13;;;;;;;;;;6351334;22;20190;-90
2022/10/28 05:54:30;;;;;;;70.15;8.70;;;;;;;;;;6351790;22;20157;-91
2022/10/28 05:57:36;;;;;;;45.40;8.85;;;;;;;;;;6354511;22;20168;-92
2022/10/28 06:00:42;;;;;;;57.25;8.57;;;;;;;;;;6353536;22;20164;-89
2022/10/28 06:03:47;;;;;;;29.38;7.93;;;;;;;;;;6353243;22;20203;-90
2022/10/28 06:06:59;;;;;;;57.40;9.38;;;;;;;;;;6357912;22;20164;-91
2022/10/28 06:10:05;;;;;;;39.55;9.65;;;;;;;;;;6355692;22;20150;-93
2022/10/28 06:13:11;;;;;;;50.05;9.43;;;;;;;;;;6354541;22;20167;-89
2022/10/28 06:16:17;;;;;;;91.95;9.70;;;;;;;;;;6354049;22;20219;-91
2022/10/28 06:19:22;;;;;;;60.75;8.98;;;;;;;;;;6358025;22;20232;-91
2022/10/28 06:22:28;;;;;;;53.72;8.60;;;;;;;;;;6355321;22;20229;-93
2022/10/28 06:25:33;;;;;;;124.57;9.90;;;;;;;;;;6354485;22;20148;-90
2022/10/28 06:28:39;;;;;;;169.00;11.02;;;;;;;;;;6335000;22;20168;-89
2022/10/28 06:31:46;;;;;;;97.70;10.65;;;;;;;;;;6351525;22;20235;-90
2022/10/28 06:34:52;;;;;;;99.00;10.35;;;;;;;;;;6353717;22;20156;-90
2022/10/28 06:37:57;;;;;;;75.03;9.82;;;;;;;;;;6353241;22;20172;-92
2022/10/28 06:41:02;;;;;;;106.90;10.35;;;;;;;;;;6349688;22;20172;-90
2022/10/28 06:44:08;;;;;;;117.63;9.95;;;;;;;;;;6350537;22;20148;-90
2022/10/28 06:47:15;;;;;;;84.53;9.05;;;;;;;;;;6352650;22;20148;-92
2022/10/28 06:50:20;;;;;;;83.40;9.60;;;;;;;;;;6354140;22;20163;-87
2022/10/28 06:53:25;;;;;;;91.72;10.23;;;;;;;;;;6352940;22;20164;-91
2022/10/28 06:56:30;;;;;;;68.20;9.32;;;;;;;;;;6351781;22;20160;-90
2022/10/28 06:59:38;;;;;;;88.53;8.52;;;;;;;;;;6354922;22;20156;-91
2022/10/28 07:02:51;;;;;;;89.53;9.50;;;;;;;;;;6357160;22;20191;-90
2022/10/28 07:05:57;;;;;;;107.38;10.70;;;;;;;;;;6356344;22;20219;-92
2022/10/28 07:09:02;;;;;;;203.88;10.57;;;;;;;;;;6358027;22;20203;-90
2022/10/28 07:12:08;;;;;;;73.30;9.95;;;;;;;;;;6355775;22;20261;-94
2022/10/28 07:15:14;;;;;;;68.57;10.43;;;;;;;;;;6354881;22;20144;-90
2022/10/28 07:18:21;;;;;;;76.30;9.70;;;;;;;;;;6353507;22;20169;-92
2022/10/28 07:21:28;;;;;;;25.50;8.50;;;;;;;;;;6356589;22;20164;-91
2022/10/28 07:24:38;;;;;;;78.28;10.23;;;;;;;;;;6352822;22;20164;-90
2022/10/28 07:27:44;;;;;;;62.13;9.18;;;;;;;;;;6353198;22;20587;-90
2022/10/28 07:30:49;;;;;;;62.00;10.18;;;;;;;;;;6354097;22;20245;-90
2022/10/28 07:34:10;;;;;;;38.00;8.88;;;;;;;;;;6353206;22;20160;-89
2022/10/28 07:37:17;;;;;;;26.10;9.32;;;;;;;;;;6355840;22;20248;-92
2022/10/28 07:40:22;;;;;;;31.27;8.98;;;;;;;;;;6353261;22;20170;-91
2022/10/28 07:43:27;;;;;;;46.13;8.80;;;;;;;;;;6353033;22;20163;-91
2022/10/28 07:46:32;;;;;;;39.65;9.88;;;;;;;;;;6355186;22;20191;-89
2022/10/28 07:49:37;;;;;;;27.85;9.02;;;;;;;;;;6359025;22;20167;-91
2022/10/28 07:52:44;;;;;;;26.02;9.82;;;;;;;;;;6355102;22;20253;-92
2022/10/28 07:55:55;;;;;;;46.35;9.82;;;;;;;;;;6353773;22;20603;-94
2022/10/28 07:59:01;;;;;;;29.35;8.90;;;;;;;;;;6352605;22;20161;-91
2022/10/28 08:02:06;;;;;;;18.30;8.45;;;;;;;;;;6352920;22;20187;-93
2022/10/28 08:05:12;;;;;;;17.92;8.50;;;;;;;;;;6354541;22;20164;-93
2022/10/28 08:08:19;;;;;;;15.63;8.20;;;;;;;;;;6354842;22;20171;-91
2022/10/28 08:11:25;;;;;;;18.08;8.77;;;;;;;;;;6354566;22;20244;-92
2022/10/28 08:14:30;;;;;;;22.67;8.25;;;;;;;;;;6353495;22;20171;-90
2022/10/28 08:17:36;;;;;;;17.63;8.02;;;;;;;;;;6352748;22;20156;-91
2022/10/28 08:20:41;;;;;;;15.05;7.03;;;;;;;;;;6355604;22;20211;-92
2022/10/28 08:27:22;;;;;;;18.45;8.65;;;;;;;;;;6355402;22;20201;-92
2022/10/28 08:30:28;;;;;;;16.80;8.45;;;;;;;;;;6355533;22;20187;-91
2022/10/28 22:48:30;;;;;;;22.95;9.85;;;;;;;;;;6299417;22;20201;-92
2022/10/28 22:51:35;;;;;;;24.30;10.15;;;;;;;;;;6353983;22;20192;-91
2022/10/28 22:54:40;;;;;;;21.40;9.27;;;;;;;;;;6352348;22;20165;-93
2022/10/28 22:57:45;;;;;;;32.67;12.57;;;;;;;;;;6349339;22;20194;-91
2022/10/28 23:00:50;;;;;;;21.70;9.48;;;;;;;;;;6350901;22;20287;-90
2022/10/28 23:03:57;;;;;;;34.03;10.98;;;;;;;;;;6349963;22;20172;-93
2022/10/28 23:07:02;;;;;;;32.08;11.85;;;;;;;;;;6350881;22;20588;-92
2022/10/28 23:10:08;;;;;;;21.73;9.65;;;;;;;;;;6351689;22;20165;-93
2022/10/28 23:13:14;;;;;;;25.38;10.10;;;;;;;;;;6351982;22;20188;-92
2022/10/28 23:16:20;;;;;;;27.25;10.60;;;;;;;;;;6353948;22;20164;-93
2022/10/28 23:19:26;;;;;;;24.75;10.13;;;;;;;;;;6353899;22;20231;-90
2022/10/28 23:22:32;;;;;;;21.70;10.00;;;;;;;;;;6353775;22;20462;-89
2022/10/28 23:25:37;;;;;;;22.17;9.90;;;;;;;;;;6355043;22;20166;-93
2022/10/28 23:28:42;;;;;;;27.17;9.40;;;;;;;;;;6352965;22;20215;-93
2022/10/28 23:31:48;;;;;;;25.35;9.45;;;;;;;;;;6351692;22;20207;-92
2022/10/28 23:34:54;;;;;;;27.25;11.13;;;;;;;;;;6352914;22;20252;-91
2022/10/28 23:38:00;;;;;;;26.25;11.07;;;;;;;;;;6353735;22;20211;-91
2022/10/28 23:41:10;;;;;;;25.02;10.30;;;;;;;;;;6353550;22;20156;-92
2022/10/28 23:44:15;;;;;;;30.45;9.80;;;;;;;;;;6353568;22;20619;-93
2022/10/28 23:47:21;;;;;;;33.53;13.55;;;;;;;;;;6351918;22;20656;-88
2022/10/28 23:50:28;;;;;;;28.67;11.27;;;;;;;;;;6353493;22;20233;-93
2022/10/28 23:53:33;;;;;;;34.45;10.38;;;;;;;;;;6351050;22;20216;-91
2022/10/28 23:56:39;;;;;;;28.13;9.38;;;;;;;;;;6351570;22;20164;-90
2022/10/28 23:59:47;;;;;;;24.02;9.32;;;;;;;;;;6352230;22;20164;-92
